Time;durP1;ratioP1;P1;durP2;ratioP2;P2;SDS_P1;SDS_P2;PMS_P1;PMS_P2;Temp;Humidity;BMP_temperature;BMP_pressure;BME280_temperature;BME280_humidity;BME280_pressure;Samples;Min_cycle;Max_cycle;Signal;HPM_P1;HPM_P2
2023/02/17 00:00:28;;;;;;;112.68;107.97;;;13.60;95.00;;;;;;5047472;28;20057;-77
2023/02/17 00:02:58;;;;;;;117.93;113.13;;;13.60;95.00;;;;;;5046176;28;20354;-76
2023/02/17 00:05:25;;;;;;;118.07;113.28;;;13.60;95.00;;;;;;5045974;28;20469;-77
2023/02/17 00:07:51;;;;;;;120.50;115.60;;;13.60;95.00;;;;;;5045945;28;20029;-77
2023/02/17 00:10:18;;;;;;;123.43;118.32;;;13.70;95.00;;;;;;5047278;28;20116;-76
2023/02/17 00:12:43;;;;;;;123.43;118.38;;;13.60;95.00;;;;;;5047904;28;20079;-76
2023/02/17 00:15:09;;;;;;;125.03;119.95;;;13.60;95.00;;;;;;5045956;28;20029;-76
2023/02/17 00:17:35;;;;;;;124.40;119.30;;;13.60;95.00;;;;;;5047030;28;20096;-76
2023/02/17 00:20:01;;;;;;;123.63;118.63;;;13.60;95.00;;;;;;5046033;28;20464;-76
2023/02/17 00:22:26;;;;;;;121.97;116.97;;;13.60;95.00;;;;;;5049029;28;20037;-76
2023/02/17 00:24:52;;;;;;;121.53;116.57;;;13.60;95.00;;;;;;5051255;28;20328;-76
2023/02/17 00:27:18;;;;;;;125.13;120.03;;;13.60;95.00;;;;;;5050080;28;20067;-76
2023/02/17 00:29:44;;;;;;;;;;;13.60;95.00;;;;;;5050413;28;20115;-76
2023/02/17 00:32:10;;;;;;;125.22;120.22;;;13.60;95.00;;;;;;5051062;28;20401;-76
2023/02/17 00:34:36;;;;;;;128.23;123.03;;;13.60;95.00;;;;;;5051651;28;20480;-77
2023/02/17 00:37:02;;;;;;;126.75;121.65;;;13.60;95.00;;;;;;5049500;28;20029;-77
2023/02/17 00:39:28;;;;;;;127.05;121.88;;;13.60;95.00;;;;;;5050880;28;20029;-77
2023/02/17 00:41:54;;;;;;;129.13;123.90;;;13.60;95.00;;;;;;5033132;28;20032;-77
2023/02/17 00:44:22;;;;;;;127.68;122.55;;;13.60;95.00;;;;;;5050449;28;20048;-78
2023/02/17 00:46:48;;;;;;;122.18;117.25;;;13.50;95.00;;;;;;5050921;28;20083;-77
2023/02/17 00:49:16;;;;;;;;;;;13.60;95.00;;;;;;5051405;28;20037;-78
2023/02/17 00:51:42;;;;;;;122.45;117.55;;;13.60;95.00;;;;;;5050758;28;20003;-77
2023/02/17 00:54:07;;;;;;;;;;;13.60;95.00;;;;;;5051263;28;20035;-77
2023/02/17 00:56:33;;;;;;;129.00;123.85;;;13.60;95.20;;;;;;5050341;28;20500;-77
2023/02/17 00:58:59;;;;;;;127.28;122.15;;;13.60;95.00;;;;;;5050452;28;20082;-77
2023/02/17 01:01:24;;;;;;;131.23;125.93;;;13.60;95.00;;;;;;5050696;28;20029;-77
2023/02/17 01:03:50;;;;;;;128.15;122.95;;;13.60;95.00;;;;;;5050398;28;20377;-78
2023/02/17 01:06:28;;;;;;;125.80;120.70;;;13.60;95.00;;;;;;5049139;28;20050;-77
2023/02/17 01:08:54;;;;;;;127.13;121.97;;;13.60;95.00;;;;;;5050273;28;20414;-77
2023/02/17 01:11:25;;;;;;;130.90;125.57;;;13.60;95.00;;;;;;5050506;28;20109;-78
2023/02/17 01:13:50;;;;;;;133.05;127.65;;;13.60;95.00;;;;;;5050166;28;20063;-77
2023/02/17 01:16:25;;;;;;;134.55;129.13;;;13.60;95.00;;;;;;5050195;28;20057;-77
2023/02/17 01:18:51;;;;;;;134.48;128.98;;;13.60;95.00;;;;;;5050250;28;20064;-76
2023/02/17 01:21:18;;;;;;;133.65;128.18;;;13.60;95.00;;;;;;5048842;28;20025;-77
2023/02/17 01:23:44;;;;;;;130.10;124.80;;;13.60;95.00;;;;;;5048943;28;20082;-77
2023/02/17 01:26:20;;;;;;;131.70;126.35;;;13.50;95.00;;;;;;5048999;28;20033;-78
2023/02/17 01:28:46;;;;;;;130.05;124.75;;;13.60;95.00;;;;;;5049916;28;20033;-77
2023/02/17 01:31:12;;;;;;;129.90;124.63;;;13.60;95.10;;;;;;5049985;28;20575;-77
2023/02/17 01:33:39;;;;;;;132.55;127.15;;;13.60;95.00;;;;;;5048199;28;20041;-77
2023/02/17 01:36:07;;;;;;;130.13;124.93;;;13.60;95.10;;;;;;5048559;28;20514;-77
2023/02/17 01:38:34;;;;;;;130.02;124.82;;;13.60;95.10;;;;;;5049836;28;20108;-77
2023/02/17 01:41:00;;;;;;;131.73;126.43;;;13.60;95.10;;;;;;5049955;28;20154;-77
2023/02/17 01:43:26;;;;;;;130.40;125.10;;;13.60;95.10;;;;;;5048590;28;20258;-77
2023/02/17 01:45:56;;;;;;;129.00;123.75;;;13.60;95.10;;;;;;5031920;28;20154;-77
2023/02/17 01:48:27;;;;;;;130.88;125.57;;;13.60;95.10;;;;;;5049541;28;20036;-77
2023/02/17 01:51:03;;;;;;;126.80;121.65;;;13.60;95.10;;;;;;5049618;28;20032;-78
2023/02/17 01:53:54;;;;;;;132.57;127.20;;;13.70;95.30;;;;;;5049660;28;20036;-77
2023/02/17 01:56:21;;;;;;;130.68;125.38;;;13.70;95.10;;;;;;5049480;28;20029;-77
2023/02/17 01:58:54;;;;;;;128.75;123.50;;;13.70;95.10;;;;;;5049278;28;20071;-77
2023/02/17 02:01:20;;;;;;;131.38;126.07;;;13.70;95.10;;;;;;5048126;28;20025;-77
2023/02/17 02:03:46;;;;;;;;;;;13.70;95.10;;;;;;5048563;28;20039;-77
2023/02/17 02:06:17;;;;;;;128.90;123.70;;;13.70;95.30;;;;;;5049246;28;19909;-77
2023/02/17 02:09:02;;;;;;;123.95;118.95;;;13.70;95.10;;;;;;5049154;28;20055;-77
2023/02/17 02:11:29;;;;;;;124.53;119.45;;;13.70;95.00;;;;;;5048040;28;20504;-77
2023/02/17 02:13:54;;;;;;;;;;;13.70;95.00;;;;;;5048226;28;20037;-77
2023/02/17 02:16:26;;;;;;;125.32;120.22;;;13.70;95.10;;;;;;5049042;28;19962;-77
2023/02/17 02:19:18;;;;;;;128.57;123.38;;;13.80;95.00;;;;;;5050659;28;20021;-77
2023/02/17 02:21:49;;;;;;;126.43;121.32;;;13.70;95.00;;;;;;5049166;28;20379;-77
2023/02/17 02:24:44;;;;;;;129.02;123.82;;;13.70;95.00;;;;;;5049193;28;20027;-77
2023/02/17 02:27:29;;;;;;;126.78;121.68;;;13.70;95.10;;;;;;5049289;28;20032;-77
2023/02/17 02:30:22;;;;;;;126.10;121.00;;;13.70;95.10;;;;;;5048988;28;20059;-77
2023/02/17 02:33:00;;;;;;;129.43;124.18;;;13.70;95.10;;;;;;5048248;28;20037;-77
2023/02/17 02:35:40;;;;;;;136.88;131.35;;;13.70;95.10;;;;;;5048707;28;20028;-77
2023/02/17 02:38:24;;;;;;;137.13;131.63;;;13.70;95.10;;;;;;5047591;28;20418;-76
2023/02/17 02:41:01;;;;;;;136.73;131.23;;;13.70;95.10;;;;;;5048592;28;20059;-76
2023/02/17 02:43:29;;;;;;;136.45;130.95;;;13.70;95.10;;;;;;5048507;28;20028;-76
2023/02/17 02:45:54;;;;;;;133.05;127.65;;;13.70;95.10;;;;;;5047730;28;20074;-76
2023/02/17 02:48:20;;;;;;;135.32;129.82;;;13.70;95.10;;;;;;5048457;28;20048;-76
2023/02/17 02:50:58;;;;;;;138.32;132.73;;;13.70;95.10;;;;;;5048483;28;20037;-76
2023/02/17 02:54:01;;;;;;;134.45;129.02;;;13.60;95.10;;;;;;5048245;28;20124;-76
2023/02/17 02:56:45;;;;;;;133.10;127.75;;;13.70;95.10;;;;;;5048066;28;20048;-76
2023/02/17 02:59:25;;;;;;;134.70;129.25;;;13.60;95.10;;;;;;5048211;28;20033;-76
2023/02/17 03:02:23;;;;;;;131.43;126.10;;;13.60;95.10;;;;;;5046839;28;20017;-76
2023/02/17 03:04:58;;;;;;;;;;;13.70;95.10;;;;;;5047933;28;20075;-76
2023/02/17 03:07:47;;;;;;;133.55;128.15;;;13.70;95.10;;;;;;5048103;28;19952;-76
2023/02/17 03:10:13;;;;;;;132.00;126.65;;;13.60;95.00;;;;;;5048058;28;20029;-76
2023/02/17 03:12:39;;;;;;;135.18;129.65;;;13.60;95.00;;;;;;5047922;28;20031;-76
2023/02/17 03:15:20;;;;;;;137.38;131.77;;;13.60;95.10;;;;;;5048064;28;20029;-76
2023/02/17 03:17:46;;;;;;;135.75;130.25;;;13.60;95.10;;;;;;5047940;28;20033;-76
2023/02/17 03:20:13;;;;;;;136.15;130.63;;;13.60;95.10;;;;;;5047775;28;20534;-76
2023/02/17 03:22:43;;;;;;;138.65;133.00;;;13.60;95.10;;;;;;5047806;28;20033;-76
2023/02/17 03:25:09;;;;;;;137.18;131.60;;;13.60;95.10;;;;;;5047766;28;20017;-76
2023/02/17 03:27:35;;;;;;;140.40;134.70;;;13.60;95.10;;;;;;5047830;28;20117;-76
2023/02/17 03:30:01;;;;;;;139.95;134.25;;;13.60;95.10;;;;;;5046298;28;20370;-76
2023/02/17 03:32:27;;;;;;;136.90;131.30;;;13.60;95.10;;;;;;5047581;28;20025;-76
2023/02/17 03:34:52;;;;;;;140.85;135.15;;;13.60;95.10;;;;;;5046349;28;20078;-76
2023/02/17 03:37:18;;;;;;;139.48;133.77;;;13.60;95.10;;;;;;5046554;28;20044;-76
2023/02/17 03:39:44;;;;;;;138.93;133.25;;;13.60;95.10;;;;;;5046282;28;20473;-76
2023/02/17 03:42:10;;;;;;;137.95;132.35;;;13.60;95.10;;;;;;5047531;28;20119;-76
2023/02/17 03:44:35;;;;;;;138.75;133.07;;;13.60;95.10;;;;;;5047500;28;20101;-76
2023/02/17 03:47:01;;;;;;;142.85;137.05;;;13.60;95.10;;;;;;5046128;28;20115;-76
2023/02/17 03:49:27;;;;;;;146.68;140.68;;;13.60;95.10;;;;;;5047341;28;20029;-75
2023/02/17 03:51:53;;;;;;;148.45;142.38;;;13.60;95.10;;;;;;5029974;28;20039;-76
2023/02/17 03:54:18;;;;;;;155.35;148.95;;;13.60;95.00;;;;;;5046361;28;20039;-76
2023/02/17 03:56:44;;;;;;;163.85;157.07;;;13.50;95.00;;;;;;5045779;28;20041;-76
2023/02/17 03:59:10;;;;;;;169.80;162.85;;;13.50;95.00;;;;;;5047507;28;20116;-76
2023/02/17 04:01:35;;;;;;;175.38;168.20;;;13.40;95.00;;;;;;5045929;28;20039;-76
2023/02/17 04:04:01;;;;;;;183.50;176.05;;;13.40;95.00;;;;;;5047309;28;20428;-76
2023/02/17 04:06:27;;;;;;;181.85;174.48;;;13.30;95.00;;;;;;5046187;28;20112;-76
2023/02/17 04:08:52;;;;;;;184.85;177.25;;;13.30;95.00;;;;;;5047202;28;20036;-76
2023/02/17 04:11:18;;;;;;;181.23;173.60;;;13.20;95.00;;;;;;5047229;28;20029;-76
2023/02/17 04:13:44;;;;;;;183.95;176.27;;;13.20;95.00;;;;;;5029508;28;20079;-76
2023/02/17 04:16:10;;;;;;;187.15;179.35;;;13.10;95.00;;;;;;5047060;28;20112;-76
2023/02/17 04:18:36;;;;;;;184.65;176.98;;;13.10;95.20;;;;;;5047015;28;20040;-75
2023/02/17 04:21:02;;;;;;;;;;;13.10;95.00;;;;;;5046333;28;20063;-75
2023/02/17 04:23:28;;;;;;;181.40;173.73;;;13.10;95.00;;;;;;5047484;28;19910;-75
2023/02/17 04:25:54;;;;;;;182.57;174.80;;;13.10;95.00;;;;;;5047118;28;20488;-76
2023/02/17 04:28:21;;;;;;;182.45;174.70;;;13.00;95.00;;;;;;5046992;28;20072;-76
2023/02/17 04:30:49;;;;;;;181.73;174.02;;;13.00;95.00;;;;;;5047093;28;20023;-76
2023/02/17 04:33:15;;;;;;;180.45;172.75;;;13.00;95.00;;;;;;5047534;28;20029;-76
2023/02/17 04:35:41;;;;;;;180.30;172.63;;;13.10;95.10;;;;;;5047028;28;20389;-76
2023/02/17 04:38:09;;;;;;;181.93;174.13;;;13.00;95.00;;;;;;5045610;28;20025;-76
2023/02/17 04:40:35;;;;;;;186.68;178.73;;;13.00;95.00;;;;;;5047011;28;20099;-76
2023/02/17 04:43:01;;;;;;;176.88;169.27;;;13.00;95.00;;;;;;5046888;28;20108;-76
2023/02/17 04:45:27;;;;;;;183.45;175.65;;;13.00;95.10;;;;;;5046829;28;20470;-76
2023/02/17 04:47:53;;;;;;;183.75;175.88;;;12.90;95.00;;;;;;5046719;28;20061;-76
2023/02/17 04:50:19;;;;;;;178.48;170.77;;;12.90;95.10;;;;;;5045410;28;20029;-76
2023/02/17 04:52:44;;;;;;;179.10;171.35;;;12.90;95.10;;;;;;5045730;28;20432;-76
2023/02/17 04:55:10;;;;;;;177.30;169.60;;;12.90;95.10;;;;;;5046716;28;20041;-76
2023/02/17 04:57:36;;;;;;;182.55;174.68;;;12.90;95.10;;;;;;5046590;28;20052;-76
2023/02/17 05:00:03;;;;;;;179.38;171.68;;;12.90;95.10;;;;;;5046747;28;20056;-76
2023/02/17 05:02:29;;;;;;;180.00;172.25;;;12.90;95.10;;;;;;5046528;28;20017;-76
2023/02/17 05:04:55;;;;;;;176.77;169.18;;;12.90;95.10;;;;;;5047222;28;20078;-76
2023/02/17 05:07:21;;;;;;;177.27;169.63;;;12.90;95.10;;;;;;5046543;28;20032;-76
2023/02/17 05:09:47;;;;;;;172.90;165.50;;;12.90;95.10;;;;;;5048911;28;20036;-77
2023/02/17 05:12:12;;;;;;;174.95;167.55;;;12.90;95.10;;;;;;5048999;28;20055;-76
2023/02/17 05:14:38;;;;;;;174.82;167.35;;;13.00;95.10;;;;;;5049015;28;20079;-76
2023/02/17 05:17:04;;;;;;;170.70;163.40;;;13.00;95.10;;;;;;5048536;28;20033;-76
2023/02/17 05:19:29;;;;;;;175.43;167.98;;;13.00;95.10;;;;;;5050091;28;20404;-76
2023/02/17 05:21:55;;;;;;;174.77;167.40;;;13.00;95.10;;;;;;5048688;28;20123;-76
2023/02/17 05:24:21;;;;;;;166.45;159.35;;;13.00;95.10;;;;;;5048784;28;20055;-76
2023/02/17 05:26:47;;;;;;;173.65;166.20;;;13.00;95.10;;;;;;5050171;28;20044;-76
2023/02/17 05:29:12;;;;;;;171.32;163.93;;;13.10;95.10;;;;;;5048944;28;20083;-76
2023/02/17 05:31:38;;;;;;;172.45;165.05;;;13.10;95.10;;;;;;5048896;28;20037;-76
2023/02/17 05:34:04;;;;;;;170.65;163.35;;;13.10;95.10;;;;;;5048629;28;20367;-76
2023/02/17 05:36:30;;;;;;;175.50;168.00;;;13.10;95.10;;;;;;5048361;28;20041;-76
2023/02/17 05:38:55;;;;;;;172.02;164.68;;;13.00;95.10;;;;;;5049778;28;20088;-76
2023/02/17 05:41:21;;;;;;;170.90;163.60;;;13.00;95.30;;;;;;5048520;28;20151;-76
2023/02/17 05:43:47;;;;;;;170.02;162.77;;;13.00;95.10;;;;;;5049658;28;20025;-75
2023/02/17 05:46:13;;;;;;;172.65;165.35;;;13.00;95.10;;;;;;5049618;28;20040;-76
2023/02/17 05:48:39;;;;;;;174.55;167.20;;;13.00;95.10;;;;;;5049563;28;20033;-76
2023/02/17 05:51:05;;;;;;;170.35;163.10;;;13.00;95.20;;;;;;5049515;28;20366;-76
2023/02/17 05:53:31;;;;;;;176.48;169.05;;;13.00;95.10;;;;;;5049664;28;20068;-75
2023/02/17 05:55:57;;;;;;;170.38;163.18;;;13.00;95.10;;;;;;5049317;28;20052;-76
2023/02/17 05:58:22;;;;;;;170.25;163.10;;;13.00;95.10;;;;;;5048997;28;20049;-76
2023/02/17 06:00:48;;;;;;;175.98;168.57;;;13.00;95.10;;;;;;5047995;28;20033;-76
2023/02/17 06:03:14;;;;;;;165.52;158.52;;;13.00;95.10;;;;;;5049371;28;20082;-75
2023/02/17 06:05:40;;;;;;;169.25;162.15;;;13.00;95.10;;;;;;5049475;28;20040;-76
2023/02/17 06:08:05;;;;;;;163.32;156.52;;;13.00;95.20;;;;;;5049216;28;20048;-76
2023/02/17 06:10:31;;;;;;;159.75;153.05;;;13.00;95.10;;;;;;5049403;28;20443;-76
2023/02/17 06:12:57;;;;;;;151.65;145.27;;;13.00;95.10;;;;;;5049302;28;20037;-77
2023/02/17 06:15:23;;;;;;;150.15;143.85;;;13.10;95.20;;;;;;5049207;28;20481;-76
2023/02/17 06:17:48;;;;;;;149.13;142.95;;;13.00;95.20;;;;;;5049242;28;20025;-76
2023/02/17 06:20:14;;;;;;;140.23;134.43;;;13.00;95.20;;;;;;5048069;28;20044;-76
2023/02/17 06:22:41;;;;;;;146.55;140.55;;;13.10;95.20;;;;;;5047784;28;20121;-76
2023/02/17 06:25:07;;;;;;;;;;;13.20;95.30;;;;;;5031645;28;20045;-76
2023/02/17 06:27:32;;;;;;;153.00;146.50;;;13.20;95.20;;;;;;5047531;28;19911;-76
2023/02/17 06:29:58;;;;;;;161.70;154.85;;;13.10;95.00;;;;;;5048716;28;20037;-76
2023/02/17 06:32:24;;;;;;;163.95;156.95;;;13.10;95.00;;;;;;5047124;28;20521;-77
2023/02/17 06:34:50;;;;;;;165.00;157.98;;;13.00;95.00;;;;;;5048869;28;20079;-77
2023/02/17 06:37:15;;;;;;;166.63;159.52;;;13.00;95.10;;;;;;5047458;28;20033;-76
2023/02/17 06:39:41;;;;;;;164.15;157.25;;;12.90;95.10;;;;;;5048657;28;20028;-76
2023/02/17 06:42:07;;;;;;;165.82;158.73;;;12.90;95.10;;;;;;5047429;28;20033;-76
2023/02/17 06:44:33;;;;;;;160.98;153.98;;;12.90;95.10;;;;;;5048749;28;20029;-76
2023/02/17 06:46:58;;;;;;;163.27;156.15;;;12.90;95.10;;;;;;5047248;28;20149;-74
2023/02/17 06:49:24;;;;;;;165.60;158.40;;;12.80;95.10;;;;;;5048351;28;20036;-74
2023/02/17 06:51:50;;;;;;;166.25;159.05;;;12.80;95.10;;;;;;5046979;28;20163;-74
2023/02/17 06:54:16;;;;;;;168.02;160.73;;;12.80;95.10;;;;;;5030483;28;20291;-73
2023/02/17 06:56:42;;;;;;;171.57;164.18;;;12.70;95.10;;;;;;5048080;28;20056;-76
2023/02/17 06:59:08;;;;;;;;;;;12.70;95.10;;;;;;5048709;28;20032;-77
2023/02/17 07:01:34;;;;;;;171.80;164.40;;;12.70;95.20;;;;;;5049131;28;19914;-76
2023/02/17 07:03:59;;;;;;;179.48;171.82;;;12.70;95.10;;;;;;5048338;28;20033;-76
2023/02/17 07:06:26;;;;;;;182.40;174.73;;;12.70;95.10;;;;;;5048390;28;20029;-76
2023/02/17 07:08:51;;;;;;;;;;;12.60;95.10;;;;;;5048558;28;20029;-76
2023/02/17 07:11:18;;;;;;;181.23;173.48;;;12.60;95.10;;;;;;5048093;28;19912;-75
2023/02/17 07:13:44;;;;;;;182.70;174.90;;;12.60;95.10;;;;;;5047974;28;20021;-76
2023/02/17 07:16:11;;;;;;;177.57;169.88;;;12.50;95.00;;;;;;5046597;28;20504;-75
2023/02/17 07:18:37;;;;;;;180.80;173.02;;;12.50;95.00;;;;;;5048376;28;20470;-76
2023/02/17 07:21:07;;;;;;;182.18;174.38;;;12.40;95.00;;;;;;5048021;28;20090;-75
2023/02/17 07:23:33;;;;;;;175.90;168.30;;;12.30;95.00;;;;;;5046656;28;20517;-76
2023/02/17 07:26:11;;;;;;;181.02;173.25;;;12.30;95.10;;;;;;5047951;28;20042;-76
2023/02/17 07:28:38;;;;;;;177.63;170.00;;;12.20;95.10;;;;;;5046480;28;20131;-77
2023/02/17 07:31:09;;;;;;;182.68;174.88;;;12.10;95.10;;;;;;5047215;28;20036;-76
2023/02/17 07:33:35;;;;;;;178.18;170.50;;;12.10;95.10;;;;;;5047981;28;20393;-76
2023/02/17 07:36:05;;;;;;;;;;;12.10;95.10;;;;;;5046795;28;20119;-76
2023/02/17 07:38:31;;;;;;;179.05;171.43;;;12.00;95.10;;;;;;5047213;28;19909;-77
2023/02/17 07:41:02;;;;;;;174.10;166.65;;;11.90;95.00;;;;;;5047140;28;20032;-76
2023/02/17 07:43:28;;;;;;;169.93;162.60;;;11.80;95.00;;;;;;5049175;28;20086;-76
2023/02/17 07:45:54;;;;;;;167.98;160.68;;;11.70;95.00;;;;;;5048946;28;20424;-69
2023/02/17 07:48:19;;;;;;;;;;;11.70;95.10;;;;;;5047707;28;20086;-76
2023/02/17 07:50:45;;;;;;;168.82;161.52;;;11.70;95.10;;;;;;5047415;28;20011;-76
2023/02/17 07:53:11;;;;;;;160.63;153.57;;;11.70;95.00;;;;;;5047311;28;20037;-77
2023/02/17 07:55:36;;;;;;;167.18;160.00;;;11.70;95.00;;;;;;5029302;28;20033;-76
2023/02/17 07:58:02;;;;;;;163.20;156.23;;;11.70;95.00;;;;;;5047366;28;20049;-76
2023/02/17 08:00:28;;;;;;;163.98;156.95;;;11.70;95.00;;;;;;5046719;28;20582;-76
2023/02/17 08:02:53;;;;;;;153.13;146.52;;;11.70;95.10;;;;;;5045900;28;20049;-76
2023/02/17 08:05:19;;;;;;;152.90;146.27;;;11.70;95.10;;;;;;5046166;28;20384;-77
2023/02/17 08:07:45;;;;;;;150.27;143.77;;;11.70;95.10;;;;;;5047289;28;20017;-76
2023/02/17 08:15:24;;;;;;;138.55;132.57;;;11.80;95.10;;;;;;5046148;28;20033;-76
2023/02/17 08:17:52;;;;;;;136.07;130.18;;;11.80;95.10;;;;;;5048114;28;20048;-74
2023/02/17 08:20:18;;;;;;;129.05;123.45;;;11.90;95.10;;;;;;5046299;28;20037;-76
2023/02/17 08:22:43;;;;;;;127.35;121.85;;;11.90;95.10;;;;;;5047086;28;20430;-76
2023/02/17 08:25:09;;;;;;;126.50;121.00;;;11.90;95.10;;;;;;5045838;28;20128;-76
2023/02/17 08:27:35;;;;;;;123.07;117.72;;;12.00;95.10;;;;;;5046943;28;20478;-76
2023/02/17 08:30:01;;;;;;;123.93;118.57;;;12.00;95.10;;;;;;5029496;28;20398;-76
2023/02/17 08:32:26;;;;;;;120.43;115.20;;;12.00;95.10;;;;;;5045610;28;20021;-77
2023/02/17 08:34:55;;;;;;;118.32;113.13;;;12.00;95.10;;;;;;5046976;28;20029;-76
2023/02/17 08:37:21;;;;;;;120.25;114.95;;;12.00;95.10;;;;;;5047803;28;20025;-77
2023/02/17 08:39:47;;;;;;;120.45;115.18;;;12.10;95.10;;;;;;5047148;28;20029;-77
2023/02/17 08:42:12;;;;;;;122.95;117.57;;;12.10;95.10;;;;;;5045575;28;20112;-77
2023/02/17 08:44:38;;;;;;;122.00;116.68;;;12.20;95.20;;;;;;5050859;28;20097;-76
2023/02/17 08:47:05;;;;;;;123.95;118.55;;;12.30;95.10;;;;;;5050909;28;20405;-77
2023/02/17 08:49:31;;;;;;;124.93;119.53;;;12.30;95.10;;;;;;5050900;28;20036;-76
2023/02/17 08:51:58;;;;;;;122.40;117.13;;;12.40;95.10;;;;;;5050822;28;20540;-76
2023/02/17 08:54:23;;;;;;;122.72;117.40;;;12.40;95.00;;;;;;5050637;28;20060;-76
2023/02/17 08:56:49;;;;;;;125.57;120.18;;;12.40;95.00;;;;;;5049281;28;20075;-77
2023/02/17 08:59:15;;;;;;;124.25;118.90;;;12.40;95.00;;;;;;5049382;28;20427;-77
2023/02/17 09:01:42;;;;;;;125.53;120.13;;;12.40;95.00;;;;;;5032751;28;20077;-77
2023/02/17 09:04:08;;;;;;;;;;;12.50;95.10;;;;;;5050964;28;20036;-77
2023/02/17 09:06:43;;;;;;;122.40;117.20;;;12.50;95.10;;;;;;5050333;28;20343;-77
2023/02/17 09:09:11;;;;;;;116.57;111.57;;;12.60;95.10;;;;;;5048527;28;20031;-76
2023/02/17 09:11:37;;;;;;;116.72;111.78;;;12.60;95.10;;;;;;5050280;28;20513;-76
2023/02/17 09:14:04;;;;;;;119.03;113.95;;;12.60;95.10;;;;;;5050494;28;20110;-77
2023/02/17 09:16:29;;;;;;;;;;;12.70;95.10;;;;;;5050460;28;20033;-76
2023/02/17 09:18:55;;;;;;;111.07;106.38;;;12.70;95.10;;;;;;5049989;28;20474;-77
2023/02/17 09:21:21;;;;;;;104.50;100.05;;;12.80;95.10;;;;;;5048582;28;20035;-76
2023/02/17 09:23:48;;;;;;;106.07;101.53;;;12.80;95.10;;;;;;5049989;28;20021;-76
2023/02/17 09:26:16;;;;;;;107.72;103.13;;;12.90;95.10;;;;;;5049792;28;20025;-77
2023/02/17 09:28:42;;;;;;;106.05;101.55;;;12.90;95.10;;;;;;5048582;28;20079;-77
2023/02/17 09:31:08;;;;;;;104.93;100.45;;;13.00;95.20;;;;;;5049731;28;20108;-77
2023/02/17 09:33:34;;;;;;;105.53;101.05;;;13.10;95.20;;;;;;5047968;28;20119;-77
2023/02/17 09:36:00;;;;;;;105.43;101.03;;;13.10;95.10;;;;;;5049416;28;20385;-76
2023/02/17 09:38:25;;;;;;;98.32;94.13;;;13.20;95.10;;;;;;5049557;28;20033;-77
2023/02/17 09:40:51;;;;;;;96.22;92.13;;;13.20;95.10;;;;;;5048390;28;20276;-78
2023/02/17 09:43:28;;;;;;;92.97;89.07;;;13.30;95.30;;;;;;5049891;28;20428;-76
2023/02/17 09:45:58;;;;;;;94.38;90.38;;;13.40;95.20;;;;;;5048376;28;20106;-77
2023/02/17 09:48:29;;;;;;;94.35;90.40;;;13.40;95.20;;;;;;5050116;28;20029;-77
2023/02/17 09:50:58;;;;;;;92.53;88.63;;;13.40;95.20;;;;;;5049401;28;20025;-77
2023/02/17 09:53:30;;;;;;;96.72;92.72;;;13.50;95.20;;;;;;5049027;28;20020;-77
2023/02/17 09:56:00;;;;;;;94.40;90.40;;;13.50;95.10;;;;;;5048226;28;20021;-76
2023/02/17 09:58:42;;;;;;;84.35;80.75;;;13.50;95.30;;;;;;5049324;28;20547;-77
2023/02/17 10:01:17;;;;;;;85.88;82.28;;;13.80;95.50;;;;;;5047910;28;20053;-77
2023/02/17 10:03:58;;;;;;;85.97;82.38;;;14.00;95.40;;;;;;5048977;28;20096;-76
2023/02/17 10:06:32;;;;;;;80.03;76.65;;;14.20;95.30;;;;;;5050717;28;20028;-76
2023/02/17 10:09:16;;;;;;;78.70;75.45;;;14.50;95.50;;;;;;5048467;28;20070;-74
2023/02/17 10:12:02;;;;;;;72.18;69.18;;;14.70;95.50;;;;;;5038550;28;20053;-77
2023/02/17 10:14:39;;;;;;;68.43;65.63;;;15.00;95.50;;;;;;5048322;28;20025;-77
2023/02/17 10:17:28;;;;;;;69.68;66.90;;;15.50;95.70;;;;;;5044972;28;20102;-77
2023/02/17 10:20:14;;;;;;;73.00;70.10;;;15.70;95.20;;;;;;5048265;28;20108;-75
2023/02/17 10:22:46;;;;;;;78.93;75.82;;;15.60;94.90;;;;;;5032624;28;20017;-75
2023/02/17 10:25:44;;;;;;;79.85;76.65;;;15.30;94.90;;;;;;5030749;28;20030;-75
2023/02/17 10:28:21;;;;;;;84.15;80.75;;;15.20;94.90;;;;;;5030817;28;20044;-76
2023/02/17 10:30:58;;;;;;;85.28;81.88;;;15.00;95.10;;;;;;5030632;28;20474;-76
2023/02/17 10:33:34;;;;;;;83.93;80.53;;;14.80;95.00;;;;;;5042071;28;20080;-75
2023/02/17 10:36:17;;;;;;;83.32;79.93;;;14.70;95.10;;;;;;5031154;28;20418;-75
2023/02/17 10:39:10;;;;;;;84.10;80.70;;;14.60;95.00;;;;;;5035935;28;20488;-75
2023/02/17 10:41:39;;;;;;;82.55;79.15;;;14.50;95.10;;;;;;5030601;28;20017;-75
2023/02/17 10:44:14;;;;;;;79.90;76.60;;;14.50;95.10;;;;;;5031412;28;20079;-75
2023/02/17 10:46:42;;;;;;;82.47;79.07;;;14.50;95.20;;;;;;5030663;28;20025;-75
2023/02/17 10:49:34;;;;;;;81.90;78.55;;;14.50;95.20;;;;;;5030567;28;20259;-75
2023/02/17 10:52:14;;;;;;;79.80;76.60;;;14.60;95.20;;;;;;5029585;28;20188;-77
2023/02/17 10:55:19;;;;;;;76.25;73.15;;;14.70;95.20;;;;;;5029160;28;20068;-76
2023/02/17 10:57:48;;;;;;;74.43;71.43;;;14.70;95.20;;;;;;5039724;28;20068;-79
2023/02/17 11:00:16;;;;;;;72.15;69.25;;;14.80;95.20;;;;;;5054717;28;20035;-81
2023/02/17 11:02:44;;;;;;;75.07;72.07;;;14.80;95.20;;;;;;5050101;28;20021;-75
2023/02/17 11:05:24;;;;;;;71.93;69.03;;;14.90;95.20;;;;;;5050217;28;20109;-77
2023/02/17 11:08:20;;;;;;;69.75;66.95;;;14.90;95.10;;;;;;5050941;28;20021;-77
2023/02/17 11:10:56;;;;;;;68.07;65.32;;;14.90;95.20;;;;;;5040310;28;20083;-75
2023/02/17 11:13:45;;;;;;;;;;;15.10;95.30;;;;;;5050501;28;20342;-78
2023/02/17 11:16:26;;;;;;;69.18;66.47;;;15.20;95.30;;;;;;5047092;28;19963;-74
2023/02/17 11:18:52;;;;;;;61.95;59.45;;;15.40;95.40;;;;;;5048623;28;20377;-74
2023/02/17 11:21:18;;;;;;;62.97;60.53;;;15.70;95.50;;;;;;5048827;28;20021;-75
2023/02/17 11:24:05;;;;;;;59.75;57.45;;;15.90;95.50;;;;;;5049224;28;20346;-77
2023/02/17 11:26:33;;;;;;;57.33;55.13;;;16.20;95.50;;;;;;5049829;28;20393;-75
2023/02/17 11:29:26;;;;;;;49.33;47.53;;;16.60;95.70;;;;;;5050150;28;20024;-75
2023/02/17 11:32:06;;;;;;;47.88;46.08;;;17.10;95.80;;;;;;5048659;28;20043;-79
2023/02/17 11:34:33;;;;;;;31.85;30.65;;;17.80;96.20;;;;;;5051817;28;20066;-77
2023/02/17 11:37:08;;;;;;;24.90;23.92;;;18.50;96.00;;;;;;5051051;28;20052;-77
2023/02/17 11:39:42;;;;;;;28.58;27.48;;;18.70;95.30;;;;;;5048937;28;20029;-78
2023/02/17 11:42:24;;;;;;;25.58;24.58;;;18.70;95.30;;;;;;5050580;28;20069;-78
2023/02/17 11:44:51;;;;;;;24.48;23.50;;;18.60;95.30;;;;;;5051245;28;20021;-79
2023/02/17 11:47:44;;;;;;;26.95;25.92;;;18.50;95.20;;;;;;5048276;28;20078;-78
2023/02/17 11:50:19;;;;;;;25.88;24.88;;;18.30;95.20;;;;;;5047723;28;20068;-76
2023/02/17 11:53:17;;;;;;;20.60;19.80;;;18.40;95.50;;;;;;5047426;28;20454;-79
2023/02/17 11:56:13;;;;;;;14.75;14.15;;;18.50;95.60;;;;;;5036728;28;20115;-76
2023/02/17 11:59:16;;;;;;;16.15;15.45;;;18.40;95.40;;;;;;5047393;28;20386;-80
2023/02/17 12:01:48;;;;;;;18.05;17.35;;;18.30;95.30;;;;;;5047841;28;20040;-80
2023/02/17 12:04:37;;;;;;;17.10;16.40;;;18.20;95.40;;;;;;5039521;28;20021;-81
2023/02/17 12:07:08;;;;;;;16.50;15.80;;;18.30;95.50;;;;;;5045580;28;20043;-83
2023/02/17 12:09:40;;;;;;;13.50;12.90;;;18.10;95.40;;;;;;5043953;28;20026;-82
2023/02/17 12:12:43;;;;;;;11.48;10.98;;;18.20;95.60;;;;;;5049962;28;20028;-83
2023/02/17 12:15:20;;;;;;;13.05;12.45;;;18.10;95.50;;;;;;5035145;28;20305;-80
2023/02/17 12:18:12;;;;;;;12.65;12.05;;;18.00;95.30;;;;;;5031721;28;20470;-79
2023/02/17 12:20:44;;;;;;;14.70;14.10;;;17.80;95.30;;;;;;5013168;28;20052;-78
2023/02/17 12:23:16;;;;;;;14.35;13.75;;;17.70;95.40;;;;;;5013565;28;20028;-76
2023/02/17 12:26:07;;;;;;;15.95;15.25;;;17.60;95.40;;;;;;5012619;28;20045;-78
2023/02/17 12:28:58;;;;;;;15.98;15.27;;;17.40;95.30;;;;;;5012473;28;20073;-74
2023/02/17 12:31:51;;;;;;;18.55;17.77;;;17.20;95.40;;;;;;5011973;28;20454;-75
2023/02/17 12:34:29;;;;;;;19.60;18.80;;;16.90;95.30;;;;;;5011633;28;20087;-75
2023/02/17 12:36:57;;;;;;;19.00;18.20;;;16.80;95.40;;;;;;5012522;28;20374;-81
2023/02/17 12:39:37;;;;;;;19.75;18.95;;;16.80;95.50;;;;;;5013752;28;20121;-80